Time;durP1;ratioP1;P1;durP2;ratioP2;P2;SDS_P1;SDS_P2;PMS_P1;PMS_P2;Temp;Humidity;BMP_temperature;BMP_pressure;BME280_temperature;BME280_humidity;BME280_pressure;Samples;Min_cycle;Max_cycle;Signal;HPM_P1;HPM_P2
2023/01/10 00:01:22;;;;;;;11.07;4.10;;;7.20;89.10;;;;;;9179606;19;20496;-67
2023/01/10 00:04:28;;;;;;;14.55;5.05;;;7.10;88.50;;;;;;9182025;19;20082;-67
2023/01/10 00:07:30;;;;;;;14.38;4.03;;;7.10;88.50;;;;;;9176704;19;20018;-67
2023/01/10 00:10:32;;;;;;;15.70;3.88;;;7.10;88.60;;;;;;9179364;19;20022;-67
2023/01/10 00:13:33;;;;;;;14.57;4.40;;;7.00;88.50;;;;;;9176953;19;20022;-67
2023/01/10 00:16:36;;;;;;;14.75;4.10;;;7.00;88.60;;;;;;9181229;19;20139;-67
2023/01/10 00:19:37;;;;;;;20.38;4.05;;;7.00;88.50;;;;;;9182457;19;20010;-67
2023/01/10 00:22:39;;;;;;;11.60;3.78;;;7.00;89.20;;;;;;9180917;19;20105;-67
2023/01/10 00:25:41;;;;;;;21.73;4.38;;;6.90;88.50;;;;;;9180123;19;20094;-67
2023/01/10 00:28:42;;;;;;;13.13;3.10;;;6.90;88.60;;;;;;9180724;19;20026;-67
2023/01/10 00:31:44;;;;;;;12.18;4.18;;;6.90;88.50;;;;;;9179664;19;20030;-67
2023/01/10 00:34:45;;;;;;;25.35;3.47;;;6.90;88.60;;;;;;9179819;19;20017;-67
2023/01/10 00:37:47;;;;;;;25.13;3.70;;;6.80;88.50;;;;;;9178191;19;20029;-67
2023/01/10 00:40:49;;;;;;;22.55;4.05;;;6.80;88.50;;;;;;9178891;19;20019;-67
2023/01/10 00:43:56;;;;;;;21.65;3.30;;;6.80;88.50;;;;;;9180654;19;20014;-67
2023/01/10 00:46:57;;;;;;;14.38;3.13;;;6.70;88.50;;;;;;9179888;19;20014;-67
2023/01/10 00:49:59;;;;;;;13.23;3.30;;;6.70;88.50;;;;;;9180690;19;20019;-67
2023/01/10 00:53:00;;;;;;;16.48;4.05;;;6.70;88.60;;;;;;9178916;19;20010;-67
2023/01/10 00:56:02;;;;;;;15.77;3.58;;;6.70;88.60;;;;;;9180096;19;20017;-67
2023/01/10 00:59:05;;;;;;;13.93;2.58;;;6.60;88.60;;;;;;9180029;19;20025;-67
2023/01/10 01:02:06;;;;;;;13.63;2.43;;;6.60;88.70;;;;;;9178297;19;20070;-67
2023/01/10 01:05:08;;;;;;;22.08;2.85;;;6.60;88.80;;;;;;9178258;19;20829;-67
2023/01/10 01:08:10;;;;;;;11.93;2.88;;;6.60;88.90;;;;;;9174619;19;20026;-67
2023/01/10 01:11:12;;;;;;;19.40;4.03;;;6.80;88.80;;;;;;9177241;19;20019;-67
2023/01/10 01:14:13;;;;;;;27.17;3.67;;;6.60;88.70;;;;;;9176032;19;20033;-67
2023/01/10 01:17:14;;;;;;;18.63;2.85;;;6.60;88.80;;;;;;9178917;19;20022;-67
2023/01/10 01:20:16;;;;;;;15.90;3.20;;;6.60;88.80;;;;;;9179344;19;20025;-67
2023/01/10 01:23:17;;;;;;;13.38;3.35;;;6.60;88.80;;;;;;9175307;19;20030;-67
2023/01/10 01:26:19;;;;;;;18.25;3.20;;;6.60;88.80;;;;;;9178861;19;20114;-67
2023/01/10 01:29:20;;;;;;;16.17;2.42;;;6.70;88.90;;;;;;9177133;19;20035;-67
2023/01/10 01:32:23;;;;;;;9.73;2.80;;;6.70;88.90;;;;;;9175674;19;20015;-66
2023/01/10 01:35:24;;;;;;;25.23;3.65;;;6.70;88.90;;;;;;9179258;19;20022;-66
2023/01/10 01:38:26;;;;;;;15.82;3.33;;;6.70;88.80;;;;;;9178857;19;20033;-66
2023/01/10 01:45:07;;;;;;;17.70;3.13;;;6.70;88.80;;;;;;9179334;19;20017;-66
2023/01/10 01:48:17;;;;;;;19.58;2.80;;;6.70;88.90;;;;;;9177872;19;20405;-67
2023/01/10 01:51:24;;;;;;;16.38;3.75;;;6.70;88.80;;;;;;9177571;19;20070;-68
2023/01/10 01:54:26;;;;;;;9.07;2.58;;;6.70;88.80;;;;;;9174027;19;20014;-66
2023/01/10 01:57:30;;;;;;;18.83;2.65;;;6.70;88.80;;;;;;9178463;19;20018;-66
2023/01/10 02:00:32;;;;;;;19.02;2.55;;;6.70;88.80;;;;;;9178395;19;20356;-66
2023/01/10 02:03:34;;;;;;;22.75;2.92;;;6.70;88.80;;;;;;9176420;19;20010;-66
2023/01/10 02:06:36;;;;;;;8.80;2.20;;;6.70;88.80;;;;;;9172874;19;20021;-66
2023/01/10 02:09:46;;;;;;;22.73;3.05;;;6.70;88.70;;;;;;9174510;19;20034;-67
2023/01/10 02:12:50;;;;;;;12.30;2.03;;;6.70;88.70;;;;;;9175389;19;20014;-67
2023/01/10 02:15:51;;;;;;;13.30;3.17;;;6.80;88.70;;;;;;9177876;19;20456;-67
2023/01/10 02:18:53;;;;;;;13.45;2.60;;;6.80;88.70;;;;;;9175041;19;20022;-67
2023/01/10 02:22:08;;;;;;;17.30;3.50;;;6.70;88.60;;;;;;9176719;19;20022;-66
2023/01/10 02:25:36;;;;;;;16.58;2.83;;;6.70;88.60;;;;;;9178292;19;20022;-66
2023/01/10 02:29:05;;;;;;;26.30;2.85;;;6.70;88.60;;;;;;9176716;19;20018;-67
2023/01/10 02:32:30;;;;;;;23.90;3.15;;;6.70;88.50;;;;;;9176182;19;20015;-67
2023/01/10 02:36:05;;;;;;;15.40;2.20;;;6.70;88.50;;;;;;9176628;19;20082;-67
2023/01/10 02:39:25;;;;;;;27.33;3.63;;;6.60;88.50;;;;;;9176513;19;20060;-66
2023/01/10 02:42:43;;;;;;;17.10;2.75;;;6.60;88.50;;;;;;9176351;19;20022;-67
2023/01/10 02:46:06;;;;;;;13.43;2.40;;;6.60;88.50;;;;;;9173853;19;20015;-67
2023/01/10 02:49:07;;;;;;;14.98;2.75;;;6.50;88.60;;;;;;9175551;19;20017;-67
2023/01/10 02:52:10;;;;;;;23.45;2.45;;;6.60;88.60;;;;;;9175528;19;20025;-67
2023/01/10 02:55:12;;;;;;;17.30;2.47;;;6.60;88.60;;;;;;9175929;19;20010;-67
2023/01/10 02:58:28;;;;;;;14.95;3.13;;;6.50;88.60;;;;;;9175838;19;20031;-67
2023/01/10 03:01:44;;;;;;;11.05;2.80;;;6.50;88.60;;;;;;9178196;19;20015;-67
2023/01/10 03:05:24;;;;;;;12.90;3.03;;;6.50;88.70;;;;;;9184379;19;20494;-67
2023/01/10 03:08:35;;;;;;;18.90;2.70;;;6.50;88.70;;;;;;9176875;19;20050;-67
2023/01/10 03:11:41;;;;;;;14.13;3.28;;;6.50;88.60;;;;;;9181491;19;20511;-67
2023/01/10 03:14:45;;;;;;;21.23;3.33;;;6.50;88.60;;;;;;9182099;19;20913;-66
2023/01/10 03:17:53;;;;;;;24.95;3.70;;;6.50;88.60;;;;;;9181057;19;20606;-66
2023/01/10 03:20:57;;;;;;;19.83;3.13;;;6.50;88.60;;;;;;9183223;19;20028;-68
2023/01/10 03:24:04;;;;;;;14.27;2.55;;;6.50;88.60;;;;;;9182947;19;20491;-67
2023/01/10 03:27:43;;;;;;;17.70;3.40;;;6.50;88.60;;;;;;9181077;19;20371;-68
2023/01/10 03:30:57;;;;;;;16.60;2.78;;;6.50;88.60;;;;;;9183105;19;20074;-68
2023/01/10 03:33:59;;;;;;;;;;;6.50;88.80;;;;;;9181165;19;20030;-67
2023/01/10 03:37:08;;;;;;;13.18;2.03;;;6.50;88.60;;;;;;9182657;19;19956;-67
2023/01/10 03:40:21;;;;;;;21.02;2.70;;;6.50;88.60;;;;;;9182521;19;20021;-69
2023/01/10 03:47:36;;;;;;;24.10;2.40;;;6.50;88.60;;;;;;9182259;19;20051;-69
2023/01/10 03:50:39;;;;;;;14.75;2.45;;;6.50;88.60;;;;;;9180309;19;20010;-68
2023/01/10 03:53:41;;;;;;;8.18;1.83;;;6.50;88.60;;;;;;9180113;19;20029;-68
2023/01/10 03:56:44;;;;;;;18.48;2.80;;;6.50;88.70;;;;;;9182574;19;20014;-69
2023/01/10 03:59:47;;;;;;;14.35;3.22;;;6.50;88.60;;;;;;9181999;19;20056;-69
2023/01/10 04:02:49;;;;;;;18.40;2.05;;;6.50;88.70;;;;;;9181995;19;20011;-69
2023/01/10 04:05:51;;;;;;;25.80;3.50;;;6.50;88.70;;;;;;9181649;19;20095;-69
2023/01/10 04:08:52;;;;;;;9.52;2.20;;;6.50;88.70;;;;;;9176765;19;20018;-69
2023/01/10 04:11:53;;;;;;;11.45;2.17;;;6.60;88.80;;;;;;9177520;19;20052;-68
2023/01/10 04:14:55;;;;;;;15.10;2.80;;;6.50;88.70;;;;;;9181302;19;20014;-69
2023/01/10 04:17:56;;;;;;;19.20;2.53;;;6.50;89.30;;;;;;9181160;19;20042;-68
2023/01/10 04:20:58;;;;;;;18.77;2.92;;;6.60;88.70;;;;;;9181306;19;20475;-69
2023/01/10 04:23:59;;;;;;;19.85;3.63;;;6.60;88.70;;;;;;9180697;19;20507;-68
2023/01/10 04:27:00;;;;;;;19.10;2.53;;;6.60;88.80;;;;;;9178881;19;20014;-68
2023/01/10 04:30:02;;;;;;;21.65;3.38;;;6.60;88.80;;;;;;9179282;19;20014;-70
2023/01/10 04:33:06;;;;;;;18.23;3.75;;;6.60;88.80;;;;;;9179249;19;20038;-68
2023/01/10 04:36:07;;;;;;;17.63;2.13;;;6.50;88.70;;;;;;9180781;19;20018;-68
2023/01/10 04:39:08;;;;;;;20.73;2.75;;;6.60;88.80;;;;;;9180110;19;20015;-68
2023/01/10 04:42:10;;;;;;;21.00;3.50;;;6.60;88.80;;;;;;9181137;19;20074;-68
2023/01/10 04:45:16;;;;;;;21.30;2.60;;;6.60;88.80;;;;;;9180760;19;20340;-68
2023/01/10 04:48:18;;;;;;;22.67;2.92;;;6.60;88.80;;;;;;9180150;19;20022;-68
2023/01/10 04:51:19;;;;;;;12.68;2.55;;;6.60;88.80;;;;;;9180531;19;20018;-68
2023/01/10 04:54:22;;;;;;;18.90;3.10;;;6.60;88.80;;;;;;9177159;19;20033;-68
2023/01/10 04:57:23;;;;;;;13.57;2.50;;;6.60;88.90;;;;;;9177914;19;20089;-68
2023/01/10 05:00:24;;;;;;;18.20;2.15;;;6.60;88.90;;;;;;9179649;19;20378;-69
2023/01/10 05:03:26;;;;;;;22.95;3.25;;;6.60;88.90;;;;;;9180785;19;20352;-68
2023/01/10 05:06:27;;;;;;;18.95;2.58;;;6.60;88.90;;;;;;9174951;19;20088;-68
2023/01/10 05:09:29;;;;;;;22.75;3.40;;;6.60;88.90;;;;;;9178770;19;20026;-68
2023/01/10 05:12:30;;;;;;;16.33;3.25;;;6.60;88.90;;;;;;9178554;19;20114;-68
2023/01/10 05:15:31;;;;;;;21.45;2.83;;;6.70;89.00;;;;;;9176839;19;20372;-68
2023/01/10 05:18:33;;;;;;;21.85;3.55;;;6.70;89.00;;;;;;9179222;19;20026;-68
2023/01/10 05:21:34;;;;;;;20.52;3.78;;;6.70;89.00;;;;;;9178909;19;20657;-68
2023/01/10 05:24:36;;;;;;;19.00;3.33;;;6.70;89.00;;;;;;9178408;19;20032;-68
2023/01/10 05:27:40;;;;;;;14.40;3.60;;;6.70;89.00;;;;;;9179117;19;20371;-68
2023/01/10 05:30:42;;;;;;;21.65;3.25;;;6.80;89.10;;;;;;9176558;19;20400;-68
2023/01/10 05:33:45;;;;;;;18.00;2.80;;;6.80;89.10;;;;;;9176444;19;20590;-68
2023/01/10 05:36:46;;;;;;;26.17;4.20;;;6.80;89.10;;;;;;9176806;19;20029;-68
2023/01/10 05:39:48;;;;;;;23.23;4.07;;;6.80;89.10;;;;;;9178176;19;20022;-68
2023/01/10 05:42:49;;;;;;;19.70;3.35;;;6.80;89.10;;;;;;9179292;19;20019;-68
2023/01/10 05:45:51;;;;;;;25.52;4.43;;;6.80;89.10;;;;;;9177523;19;20023;-68
2023/01/10 05:48:52;;;;;;;13.77;3.28;;;6.80;89.10;;;;;;9176868;19;20022;-68
2023/01/10 05:51:54;;;;;;;13.20;3.40;;;6.80;89.10;;;;;;9178321;19;20345;-68
2023/01/10 05:54:55;;;;;;;16.35;3.72;;;6.80;89.10;;;;;;9176800;19;20011;-68
2023/01/10 05:57:57;;;;;;;23.85;3.38;;;6.90;89.10;;;;;;9178372;19;20015;-68
2023/01/10 06:00:58;;;;;;;15.13;3.88;;;6.90;89.20;;;;;;9176809;19;20014;-68
2023/01/10 06:04:00;;;;;;;26.35;4.43;;;6.90;89.10;;;;;;9175361;19;20011;-68
2023/01/10 06:07:01;;;;;;;19.60;3.50;;;6.90;89.10;;;;;;9172553;19;20011;-69
2023/01/10 06:10:03;;;;;;;12.30;3.28;;;6.90;89.20;;;;;;9175949;19;20014;-69
2023/01/10 06:13:04;;;;;;;23.95;4.10;;;6.90;89.10;;;;;;9175819;19;20030;-68
2023/01/10 06:16:06;;;;;;;20.88;3.85;;;6.90;89.10;;;;;;9176815;19;20387;-68
2023/01/10 06:19:08;;;;;;;19.90;3.65;;;6.90;89.10;;;;;;9176879;19;20010;-68
2023/01/10 06:22:09;;;;;;;17.30;3.70;;;6.90;89.10;;;;;;9177528;19;20082;-68
2023/01/10 06:25:12;;;;;;;31.05;5.32;;;6.90;89.00;;;;;;9176450;19;20022;-68
2023/01/10 06:28:13;;;;;;;15.38;3.65;;;6.90;89.00;;;;;;9175320;19;20814;-68
2023/01/10 06:31:15;;;;;;;18.30;4.03;;;6.90;89.00;;;;;;9176182;19;20479;-68
2023/01/10 06:34:16;;;;;;;21.23;5.38;;;6.90;89.00;;;;;;9173561;19;20017;-68
2023/01/10 06:37:18;;;;;;;21.25;4.47;;;6.90;89.00;;;;;;9181202;19;20014;-68
2023/01/10 06:40:21;;;;;;;15.03;3.73;;;6.90;89.20;;;;;;9185315;19;20019;-68
2023/01/10 06:43:22;;;;;;;21.42;4.47;;;7.00;90.30;;;;;;9184609;19;20014;-68
2023/01/10 06:46:26;;;;;;;20.10;3.92;;;6.90;89.50;;;;;;9183886;19;20044;-68
2023/01/10 06:49:28;;;;;;;19.30;4.25;;;7.00;90.80;;;;;;9183579;19;20022;-68
2023/01/10 06:52:30;;;;;;;23.30;4.82;;;6.80;88.80;;;;;;9183562;19;20023;-68
2023/01/10 06:55:31;;;;;;;22.88;4.38;;;6.80;88.80;;;;;;9182090;19;20015;-68
2023/01/10 06:58:33;;;;;;;26.70;5.22;;;6.80;88.90;;;;;;9183581;19;20031;-68
2023/01/10 07:01:35;;;;;;;14.85;4.88;;;6.80;88.90;;;;;;9177543;19;20045;-68
2023/01/10 07:04:36;;;;;;;24.50;5.57;;;6.70;88.90;;;;;;9179846;19;20026;-68
2023/01/10 07:07:37;;;;;;;30.80;6.55;;;6.70;88.90;;;;;;9172472;19;20019;-68
2023/01/10 07:10:40;;;;;;;16.05;4.10;;;6.70;88.90;;;;;;9173590;19;20022;-68
2023/01/10 07:13:42;;;;;;;30.63;5.65;;;6.70;88.90;;;;;;9173489;19;20018;-68
2023/01/10 07:16:43;;;;;;;22.55;5.57;;;6.70;89.10;;;;;;9175646;19;20018;-68
2023/01/10 07:19:44;;;;;;;23.67;4.65;;;6.70;89.00;;;;;;9176109;19;20479;-68
2023/01/10 07:22:57;;;;;;;25.42;5.43;;;6.70;89.00;;;;;;9173183;19;20032;-68
2023/01/10 07:26:06;;;;;;;30.85;5.30;;;6.60;89.00;;;;;;9170837;19;20039;-68
2023/01/10 07:29:08;;;;;;;24.63;5.63;;;6.60;89.00;;;;;;9171916;19;20440;-68
2023/01/10 07:32:09;;;;;;;24.85;4.97;;;6.60;89.00;;;;;;9168179;19;20029;-68
2023/01/10 07:35:11;;;;;;;18.77;5.03;;;6.60;89.00;;;;;;9170950;19;20122;-68
2023/01/10 07:38:12;;;;;;;25.73;5.00;;;6.60;89.00;;;;;;9168132;19;20025;-68
2023/01/10 07:41:13;;;;;;;18.45;4.80;;;6.60;89.00;;;;;;9166236;19;20653;-68
2023/01/10 07:44:15;;;;;;;21.75;5.20;;;6.60;89.00;;;;;;9167076;19;20022;-68
2023/01/10 07:47:16;;;;;;;26.45;4.63;;;6.60;89.00;;;;;;9175282;19;20022;-68
2023/01/10 07:50:18;;;;;;;11.77;4.53;;;6.60;89.00;;;;;;9173960;19;20022;-68
2023/01/10 07:53:19;;;;;;;28.63;5.78;;;6.60;88.90;;;;;;9177366;19;20107;-68
2023/01/10 07:56:20;;;;;;;19.50;4.68;;;6.60;89.00;;;;;;9177726;19;20029;-68
2023/01/10 07:59:22;;;;;;;20.15;4.38;;;6.60;89.00;;;;;;9182124;19;20114;-68
2023/01/10 08:02:23;;;;;;;25.23;4.28;;;6.60;88.90;;;;;;9181598;19;20011;-68
2023/01/10 08:05:25;;;;;;;24.35;5.30;;;6.60;89.00;;;;;;9180115;19;20028;-69
2023/01/10 08:08:27;;;;;;;23.17;4.43;;;6.50;88.90;;;;;;9176087;19;20030;-69
2023/01/10 08:11:28;;;;;;;27.95;5.43;;;6.50;88.90;;;;;;9178389;19;20841;-69
2023/01/10 08:14:29;;;;;;;23.35;5.40;;;6.50;89.00;;;;;;9175184;19;20033;-70
2023/01/10 08:17:35;;;;;;;23.75;5.05;;;6.50;88.90;;;;;;9176521;19;20022;-69
2023/01/10 08:20:37;;;;;;;26.80;5.10;;;6.50;89.00;;;;;;9179936;19;20019;-69
2023/01/10 08:23:38;;;;;;;16.80;4.15;;;6.50;89.00;;;;;;9179042;19;20927;-69
2023/01/10 08:26:40;;;;;;;24.25;5.22;;;6.50;89.00;;;;;;9180119;19;20022;-68
2023/01/10 08:29:41;;;;;;;30.52;5.32;;;6.50;89.00;;;;;;9176736;19;20026;-69
2023/01/10 08:32:43;;;;;;;29.27;5.45;;;6.50;89.00;;;;;;9179478;19;20018;-68
2023/01/10 08:35:44;;;;;;;21.33;5.35;;;6.50;89.10;;;;;;9179862;19;20037;-68
2023/01/10 08:38:46;;;;;;;30.27;5.93;;;6.50;89.10;;;;;;9179613;19;20025;-69
2023/01/10 08:41:48;;;;;;;21.60;4.93;;;6.50;89.20;;;;;;9173745;19;20038;-69
2023/01/10 08:44:50;;;;;;;26.70;5.03;;;6.50;89.20;;;;;;9172816;19;20022;-68
2023/01/10 08:47:52;;;;;;;27.40;6.72;;;6.50;89.80;;;;;;9172792;19;20022;-68
2023/01/10 08:50:53;;;;;;;28.40;5.90;;;6.50;89.20;;;;;;9174265;19;20463;-68
2023/01/10 08:53:55;;;;;;;19.02;4.63;;;6.60;89.30;;;;;;9160460;19;20101;-69
2023/01/10 08:56:56;;;;;;;34.63;5.85;;;6.60;89.30;;;;;;9175355;19;20030;-67
2023/01/10 08:59:57;;;;;;;30.60;5.25;;;6.60;89.30;;;;;;9166957;19;20901;-67
2023/01/10 09:02:59;;;;;;;23.83;6.07;;;6.60;89.30;;;;;;9167855;19;20046;-69
2023/01/10 09:06:01;;;;;;;27.67;5.57;;;6.60;89.40;;;;;;9174015;19;20380;-68
2023/01/10 09:09:03;;;;;;;35.42;5.50;;;6.60;89.30;;;;;;9171671;19;20018;-67
2023/01/10 09:12:53;;;;;;;27.50;5.30;;;6.60;89.30;;;;;;9170918;19;20023;-69
2023/01/10 09:15:29;;;;;;;23.13;5.53;;;6.70;89.40;;;;;;9169923;19;20026;-69
2023/01/10 09:18:30;;;;;;;30.35;4.97;;;6.70;89.40;;;;;;9170627;19;20054;-67
2023/01/10 09:21:32;;;;;;;21.80;4.05;;;6.70;89.90;;;;;;9170617;19;20022;-67
2023/01/10 09:24:36;;;;;;;31.38;5.55;;;6.80;89.50;;;;;;9173987;19;20010;-70
2023/01/10 09:27:37;;;;;;;28.40;6.18;;;6.80;89.50;;;;;;9170146;19;20166;-69
2023/01/10 09:30:39;;;;;;;24.23;4.45;;;6.80;89.50;;;;;;9178657;19;20048;-69
2023/01/10 09:33:41;;;;;;;25.42;6.03;;;6.90;89.50;;;;;;9174493;19;20476;-68
2023/01/10 09:36:48;;;;;;;30.90;5.22;;;6.90;89.50;;;;;;9171730;19;20015;-68
2023/01/10 09:39:51;;;;;;;26.42;4.45;;;6.90;89.50;;;;;;9171977;19;20046;-68
2023/01/10 09:43:19;;;;;;;31.50;4.03;;;6.90;89.50;;;;;;9169328;19;20578;-67
2023/01/10 09:46:46;;;;;;;33.88;4.70;;;7.00;89.50;;;;;;9171502;19;20882;-69
2023/01/10 09:49:57;;;;;;;20.30;5.10;;;7.00;89.50;;;;;;9169475;19;20026;-69
2023/01/10 09:53:15;;;;;;;28.48;3.78;;;7.00;89.50;;;;;;9164978;19;20023;-69
2023/01/10 09:56:17;;;;;;;35.75;6.15;;;7.10;89.50;;;;;;9177306;19;20566;-69
2023/01/10 09:59:37;;;;;;;24.15;4.28;;;7.10;89.50;;;;;;9170304;19;20021;-68
2023/01/10 10:02:43;;;;;;;28.88;4.22;;;7.20;89.50;;;;;;9172156;19;20034;-67
2023/01/10 10:05:45;;;;;;;29.52;4.45;;;7.20;89.50;;;;;;9171692;19;20377;-68
2023/01/10 10:08:46;;;;;;;25.80;4.18;;;7.20;89.40;;;;;;9175503;19;20026;-67
2023/01/10 10:12:40;;;;;;;19.30;4.50;;;7.20;89.40;;;;;;9167386;19;20015;-70
2023/01/10 10:16:05;;;;;;;30.63;4.05;;;7.30;89.50;;;;;;9172745;19;20003;-69
2023/01/10 10:19:12;;;;;;;31.67;4.85;;;7.30;89.40;;;;;;9168264;19;20027;-67
2023/01/10 10:22:32;;;;;;;26.80;5.65;;;7.30;89.40;;;;;;9171133;19;20022;-68
2023/01/10 10:25:54;;;;;;;28.35;3.92;;;7.60;91.20;;;;;;9169353;19;20395;-68
2023/01/10 10:29:22;;;;;;;33.83;5.53;;;7.10;89.20;;;;;;9175759;19;20645;-68
2023/01/10 10:32:42;;;;;;;24.52;4.47;;;7.50;89.40;;;;;;9173259;19;20344;-68
2023/01/10 10:35:55;;;;;;;32.17;4.93;;;7.50;89.40;;;;;;9167820;19;20048;-69
2023/01/10 10:39:00;;;;;;;23.60;4.07;;;7.50;89.30;;;;;;9172218;19;20018;-68
2023/01/10 10:42:02;;;;;;;24.23;3.72;;;7.60;89.30;;;;;;9169826;19;20472;-68
2023/01/10 10:45:14;;;;;;;23.52;3.88;;;7.60;89.30;;;;;;9171518;19;20027;-68
2023/01/10 10:48:26;;;;;;;30.42;3.90;;;7.60;89.30;;;;;;9169591;19;20014;-67
2023/01/10 10:51:41;;;;;;;22.23;3.83;;;7.70;89.30;;;;;;9166738;19;20018;-69
2023/01/10 10:54:42;;;;;;;30.13;3.92;;;7.70;89.20;;;;;;9160476;19;20039;-71
2023/01/10 10:57:46;;;;;;;29.05;4.43;;;7.70;89.10;;;;;;9162875;19;20015;-68
2023/01/10 11:01:00;;;;;;;32.67;4.40;;;7.70;89.10;;;;;;9165597;19;20011;-69
2023/01/10 11:04:12;;;;;;;30.48;3.50;;;7.70;89.10;;;;;;9168714;19;20035;-69
2023/01/10 11:07:17;;;;;;;27.88;4.95;;;7.70;89.10;;;;;;9167700;19;20056;-69
2023/01/10 11:10:35;;;;;;;33.95;4.35;;;7.80;89.10;;;;;;9167263;19;20050;-69
2023/01/10 11:13:47;;;;;;;26.20;4.28;;;7.80;89.10;;;;;;9166013;19;20018;-69
2023/01/10 11:16:49;;;;;;;21.92;3.58;;;7.80;89.10;;;;;;9167504;19;20046;-70
2023/01/10 11:20:05;;;;;;;19.95;3.78;;;7.80;89.50;;;;;;9168528;19;20019;-71
2023/01/10 11:23:06;;;;;;;23.02;4.20;;;7.80;89.10;;;;;;9173010;19;20409;-68
2023/01/10 11:26:33;;;;;;;34.92;6.35;;;7.80;89.10;;;;;;9173496;19;20015;-68
2023/01/10 11:29:39;;;;;;;25.20;4.70;;;7.80;89.10;;;;;;9177444;19;20479;-69
2023/01/10 11:32:55;;;;;;;23.55;4.50;;;7.90;89.10;;;;;;9173062;19;20049;-68
2023/01/10 11:35:59;;;;;;;37.38;6.93;;;7.90;89.10;;;;;;9176658;19;20046;-69
2023/01/10 11:39:03;;;;;;;37.22;5.07;;;7.90;89.40;;;;;;9169444;19;20018;-69
2023/01/10 11:42:29;;;;;;;34.28;5.13;;;7.90;89.00;;;;;;9175972;19;20015;-70
2023/01/10 11:45:32;;;;;;;24.95;3.90;;;7.90;88.90;;;;;;9171493;19;20086;-69
2023/01/10 11:49:03;;;;;;;25.60;4.45;;;7.90;88.80;;;;;;9171285;19;20052;-68
2023/01/10 11:52:27;;;;;;;26.67;4.95;;;7.90;88.90;;;;;;9175521;19;20022;-68
2023/01/10 11:55:31;;;;;;;32.30;5.38;;;8.20;91.20;;;;;;9162737;19;20022;-68
2023/01/10 11:58:35;;;;;;;26.88;4.53;;;8.00;92.70;;;;;;9175371;19;20022;-68
2023/01/10 12:01:43;;;;;;;27.00;5.25;;;7.90;88.80;;;;;;9174820;19;20018;-68
2023/01/10 12:04:47;;;;;;;34.30;6.50;;;7.90;89.50;;;;;;9177246;19;20032;-68
2023/01/10 12:08:05;;;;;;;25.85;4.25;;;7.90;88.80;;;;;;9175851;19;20578;-68
2023/01/10 12:11:28;;;;;;;22.42;4.35;;;7.90;88.80;;;;;;9179257;19;20348;-68
2023/01/10 12:14:29;;;;;;;25.20;3.95;;;7.90;88.80;;;;;;9179201;19;20554;-68
2023/01/10 12:17:34;;;;;;;26.85;5.22;;;7.90;88.70;;;;;;9182464;19;20018;-67
2023/01/10 12:20:47;;;;;;;29.98;4.35;;;7.90;88.80;;;;;;9181362;19;20010;-68
2023/01/10 12:23:50;;;;;;;31.20;3.33;;;7.90;88.70;;;;;;9181226;19;20017;-68
2023/01/10 12:26:53;;;;;;;29.38;5.03;;;7.90;88.70;;;;;;9179081;19;20014;-68
2023/01/10 12:30:11;;;;;;;25.20;4.40;;;7.90;88.70;;;;;;9179535;19;20363;-69
2023/01/10 12:33:16;;;;;;;29.00;4.22;;;7.90;88.60;;;;;;9176388;19;20402;-69
2023/01/10 12:36:40;;;;;;;24.00;4.45;;;7.90;89.20;;;;;;9176966;19;20022;-68
2023/01/10 12:39:50;;;;;;;15.73;2.67;;;7.90;88.60;;;;;;9178921;19;20017;-69
2023/01/10 12:46:22;;;;;;;27.55;4.15;;;7.90;88.60;;;;;;9172945;19;20121;-69
2023/01/10 12:49:54;;;;;;;21.98;3.65;;;7.90;88.60;;;;;;9160990;19;20760;-68
2023/01/10 12:53:17;;;;;;;23.33;4.40;;;7.90;88.80;;;;;;9158731;19;21403;-68
2023/01/10 12:56:19;;;;;;;25.15;4.95;;;7.80;90.60;;;;;;9163728;19;20022;-68
2023/01/10 12:59:40;;;;;;;35.03;4.38;;;7.80;88.40;;;;;;9168020;19;20017;-68
2023/01/10 13:02:46;;;;;;;25.88;4.43;;;7.80;88.40;;;;;;9163689;19;20384;-68
2023/01/10 13:05:49;;;;;;;27.63;3.95;;;7.80;88.60;;;;;;9162397;19;20018;-68
2023/01/10 13:08:51;;;;;;;30.95;5.50;;;7.80;88.40;;;;;;9166173;19;20022;-68
2023/01/10 13:12:09;;;;;;;27.90;4.03;;;7.80;88.30;;;;;;9160520;19;20467;-69
2023/01/10 13:15:33;;;;;;;21.38;4.05;;;7.80;88.30;;;;;;9161037;19;20059;-69
2023/01/10 13:18:35;;;;;;;33.35;3.97;;;7.80;88.30;;;;;;9167376;19;20392;-68
2023/01/10 13:21:41;;;;;;;27.65;4.75;;;7.80;88.40;;;;;;9166267;19;20022;-68
2023/01/10 13:24:55;;;;;;;27.27;4.10;;;7.80;88.30;;;;;;9165445;19;20962;-69
2023/01/10 13:28:06;;;;;;;27.23;4.40;;;7.80;88.30;;;;;;9164748;19;20503;-70
2023/01/10 13:31:27;;;;;;;23.10;4.22;;;7.80;88.30;;;;;;9162434;19;20042;-69
2023/01/10 13:34:35;;;;;;;30.57;4.67;;;7.80;88.80;;;;;;9161360;19;20090;-69
2023/01/10 13:37:38;;;;;;;35.78;4.88;;;7.80;88.20;;;;;;9167552;19;20028;-69
2023/01/10 13:40:40;;;;;;;21.40;3.75;;;7.80;88.20;;;;;;9171024;19;20014;-69
2023/01/10 13:44:02;;;;;;;33.80;4.03;;;7.80;88.30;;;;;;9166706;19;20018;-69
2023/01/10 13:47:03;;;;;;;19.08;3.22;;;7.80;88.10;;;;;;9159724;19;20050;-68
2023/01/10 13:53:27;;;;;;;28.60;5.38;;;8.20;88.60;;;;;;9161575;19;20046;-69
2023/01/10 13:56:40;;;;;;;29.48;8.10;;;7.80;88.10;;;;;;9168442;19;20014;-68
2023/01/10 14:03:56;;;;;;;34.75;10.02;;;7.90;88.20;;;;;;9169023;19;20022;-68
2023/01/10 14:07:01;;;;;;;34.00;4.32;;;7.80;88.10;;;;;;9161526;19;20372;-68
2023/01/10 14:10:24;;;;;;;29.85;3.35;;;7.80;88.00;;;;;;9160241;19;20024;-69
2023/01/10 14:13:25;;;;;;;27.42;4.97;;;7.80;88.10;;;;;;9161147;19;20022;-69
2023/01/10 14:16:30;;;;;;;25.73;3.42;;;7.80;88.10;;;;;;9162478;19;20502;-67
2023/01/10 14:19:33;;;;;;;24.30;3.65;;;7.80;88.10;;;;;;9162984;19;20052;-68
2023/01/10 14:22:38;;;;;;;20.88;4.07;;;7.80;88.10;;;;;;9162074;19;20961;-68
2023/01/10 14:25:40;;;;;;;24.15;3.33;;;7.80;88.20;;;;;;9162885;19;20018;-69
2023/01/10 14:28:41;;;;;;;23.75;3.42;;;7.80;88.10;;;;;;9164962;19;20582;-68
2023/01/10 14:31:46;;;;;;;25.42;3.72;;;7.80;88.10;;;;;;9161253;19;20673;-69
2023/01/10 14:34:48;;;;;;;26.58;3.67;;;7.80;88.00;;;;;;9160327;19;20043;-69
2023/01/10 14:37:54;;;;;;;17.85;3.20;;;7.80;88.60;;;;;;9160858;19;20063;-69
2023/01/10 14:41:26;;;;;;;23.38;3.05;;;7.80;88.00;;;;;;9162147;19;20043;-68
2023/01/10 14:44:45;;;;;;;24.83;3.55;;;7.80;88.00;;;;;;9165046;19;20396;-68
2023/01/10 14:47:48;;;;;;;22.98;3.55;;;7.80;87.90;;;;;;9160739;19;20017;-68
2023/01/10 14:50:49;;;;;;;30.90;9.15;;;7.80;88.00;;;;;;9158586;19;20038;-68
2023/01/10 14:53:56;;;;;;;31.90;4.90;;;7.80;88.00;;;;;;9154599;19;20011;-68
2023/01/10 14:56:57;;;;;;;23.70;3.80;;;7.80;87.90;;;;;;9162047;19;20042;-69
2023/01/10 15:00:08;;;;;;;27.23;4.03;;;7.80;87.90;;;;;;9170983;19;20478;-68
2023/01/10 15:03:21;;;;;;;14.10;2.80;;;7.80;87.90;;;;;;9168402;19;20361;-68
2023/01/10 15:06:23;;;;;;;26.45;4.22;;;7.80;87.90;;;;;;9169743;19;21336;-68
2023/01/10 15:09:28;;;;;;;14.80;3.65;;;7.80;87.90;;;;;;9173048;19;20026;-68
2023/01/10 15:12:33;;;;;;;27.25;3.80;;;7.80;87.90;;;;;;9174304;19;20145;-68
2023/01/10 15:15:37;;;;;;;25.33;3.00;;;7.80;88.50;;;;;;9166579;19;20033;-70
2023/01/10 15:18:43;;;;;;;20.40;3.45;;;7.80;87.80;;;;;;9170917;19;20024;-68
2023/01/10 15:21:45;;;;;;;20.05;2.72;;;7.80;87.80;;;;;;9174159;19;20022;-68
2023/01/10 15:25:24;;;;;;;23.92;3.63;;;7.90;87.90;;;;;;9166933;19;20007;-68
2023/01/10 15:28:28;;;;;;;21.67;3.72;;;7.90;88.00;;;;;;9166779;19;20030;-69
2023/01/10 15:31:29;;;;;;;21.13;2.85;;;7.80;87.70;;;;;;9169636;19;20018;-69
2023/01/10 15:34:31;;;;;;;22.17;3.50;;;7.80;87.70;;;;;;9169271;19;20029;-69
2023/01/10 15:37:37;;;;;;;18.38;3.22;;;7.90;87.80;;;;;;9167121;19;20018;-69
2023/01/10 15:40:39;;;;;;;19.77;3.22;;;7.90;87.80;;;;;;9166822;19;20818;-69
2023/01/10 15:43:41;;;;;;;27.25;3.80;;;7.90;87.80;;;;;;9176356;19;20050;-68
2023/01/10 15:46:56;;;;;;;19.50;2.60;;;7.90;87.70;;;;;;9175984;19;20050;-68
2023/01/10 15:49:57;;;;;;;28.60;3.72;;;7.90;87.70;;;;;;9181901;19;20468;-69
2023/01/10 15:53:02;;;;;;;33.10;3.38;;;7.90;87.70;;;;;;9175144;19;20022;-70
2023/01/10 15:56:13;;;;;;;32.70;3.22;;;7.90;87.70;;;;;;9181527;19;20034;-70
2023/01/10 15:59:24;;;;;;;25.52;4.25;;;7.90;87.70;;;;;;9182223;19;20011;-70
2023/01/10 16:02:31;;;;;;;24.63;3.88;;;8.00;87.70;;;;;;9178656;19;20025;-69
2023/01/10 16:05:33;;;;;;;14.35;3.10;;;8.00;87.70;;;;;;9180393;19;20827;-69
2023/01/10 16:08:36;;;;;;;32.10;3.55;;;8.00;87.70;;;;;;9178151;19;20078;-68
2023/01/10 16:15:00;;;;;;;30.80;5.45;;;8.00;87.60;;;;;;9172131;19;20042;-68
2023/01/10 16:18:01;;;;;;;23.25;3.75;;;8.00;87.60;;;;;;9165146;19;20028;-69
2023/01/10 16:21:04;;;;;;;10.95;3.00;;;8.00;87.60;;;;;;9167850;19;20054;-69
2023/01/10 16:24:11;;;;;;;18.75;3.08;;;8.00;87.60;;;;;;9166383;19;20443;-69
2023/01/10 16:27:12;;;;;;;16.50;2.97;;;8.10;87.70;;;;;;9168369;19;20015;-70
2023/01/10 16:30:23;;;;;;;22.00;2.55;;;8.10;87.50;;;;;;9176908;19;20022;-70
2023/01/10 16:33:26;;;;;;;14.85;2.92;;;8.10;87.50;;;;;;9179833;19;20479;-70